createdAt,value
2018-02-09T00:00:04.737Z,-3.70
2018-02-09T00:01:04.682Z,-3.70
2018-02-09T00:02:05.327Z,-3.70
2018-02-09T00:03:05.452Z,-3.70
2018-02-09T00:04:04.847Z,-3.70
2018-02-09T00:05:05.113Z,-3.70
2018-02-09T00:06:05.095Z,-3.70
2018-02-09T00:07:05.011Z,-3.80
2018-02-09T00:08:05.425Z,-3.80
2018-02-09T00:09:05.432Z,-3.80
2018-02-09T00:10:04.921Z,-3.80
2018-02-09T00:11:05.389Z,-3.80
2018-02-09T00:12:05.407Z,-3.80
2018-02-09T00:13:05.111Z,-3.80
2018-02-09T00:14:05.241Z,-3.90
2018-02-09T00:15:04.733Z,-3.90
2018-02-09T00:16:05.037Z,-3.80
2018-02-09T00:17:04.808Z,-3.80
2018-02-09T00:18:05.460Z,-3.90
2018-02-09T00:19:05.673Z,-3.90
2018-02-09T00:20:05.143Z,-3.90
2018-02-09T00:21:04.768Z,-3.90
2018-02-09T00:22:05.222Z,-3.90
2018-02-09T00:23:04.915Z,-3.90
2018-02-09T00:24:04.991Z,-3.90
2018-02-09T00:25:05.577Z,-3.90
2018-02-09T00:26:04.925Z,-3.90
2018-02-09T00:27:06.596Z,-4.00
2018-02-09T00:28:05.157Z,-4.00
2018-02-09T00:29:05.178Z,-4.00
2018-02-09T00:30:05.080Z,-4.10
2018-02-09T00:31:04.780Z,-4.10
2018-02-09T00:32:05.166Z,-4.10
2018-02-09T00:33:07.948Z,-4.10
2018-02-09T00:34:04.922Z,-4.10
2018-02-09T00:35:05.318Z,-4.10
2018-02-09T00:36:05.270Z,-4.20
2018-02-09T00:37:04.725Z,-4.20
2018-02-09T00:38:05.196Z,-4.20
2018-02-09T00:39:04.764Z,-4.20
2018-02-09T00:40:05.098Z,-4.20
2018-02-09T00:41:04.700Z,-4.30
2018-02-09T00:42:04.938Z,-4.30
2018-02-09T00:43:04.814Z,-4.30
2018-02-09T00:44:04.946Z,-4.30
2018-02-09T00:45:05.062Z,-4.30
2018-02-09T00:46:05.680Z,-4.40
2018-02-09T00:47:05.148Z,-4.40
2018-02-09T00:48:05.279Z,-4.40
2018-02-09T00:49:05.426Z,-4.40
2018-02-09T00:50:05.300Z,-4.40
2018-02-09T00:51:10.255Z,-4.40
2018-02-09T00:52:05.546Z,-4.40
2018-02-09T00:53:05.262Z,-4.40
2018-02-09T00:54:06.498Z,-4.40
2018-02-09T00:55:05.658Z,-4.40
2018-02-09T00:56:04.939Z,-4.50
2018-02-09T00:57:05.006Z,-4.50
2018-02-09T00:58:05.612Z,-4.50
2018-02-09T00:59:05.219Z,-4.50
2018-02-09T01:00:05.709Z,-4.50
2018-02-09T01:01:04.997Z,-4.50
2018-02-09T01:02:04.761Z,-4.50
2018-02-09T01:03:05.166Z,-4.50
2018-02-09T01:04:05.180Z,-4.60
2018-02-09T01:05:05.364Z,-4.60
2018-02-09T01:06:04.954Z,-4.60
2018-02-09T01:07:05.585Z,-4.60
2018-02-09T01:08:05.230Z,-4.60
2018-02-09T01:09:05.123Z,-4.60
2018-02-09T01:10:05.473Z,-4.60
2018-02-09T01:11:05.164Z,-4.70
2018-02-09T01:12:04.778Z,-4.70
2018-02-09T01:13:05.342Z,-4.70
2018-02-09T01:14:04.958Z,-4.70
2018-02-09T01:15:04.921Z,-4.70
2018-02-09T01:16:05.245Z,-4.70
2018-02-09T01:17:05.525Z,-4.80
2018-02-09T01:18:05.168Z,-4.80
2018-02-09T01:19:04.614Z,-4.80
2018-02-09T01:20:04.894Z,-4.80
2018-02-09T01:21:05.416Z,-4.80
2018-02-09T01:22:05.030Z,-4.80
2018-02-09T01:23:05.375Z,-4.80
2018-02-09T01:24:05.007Z,-4.80
2018-02-09T01:25:05.051Z,-4.80
2018-02-09T01:26:05.258Z,-4.80
2018-02-09T01:27:04.779Z,-4.80
2018-02-09T01:28:04.938Z,-4.80
2018-02-09T01:29:05.439Z,-4.80
2018-02-09T01:30:05.714Z,-4.90
2018-02-09T01:31:05.401Z,-4.90
2018-02-09T01:32:04.972Z,-4.90
2018-02-09T01:33:05.553Z,-4.90
2018-02-09T01:34:04.953Z,-4.90
2018-02-09T01:35:05.559Z,-4.90
2018-02-09T01:36:05.104Z,-4.90
2018-02-09T01:37:05.181Z,-4.90
2018-02-09T01:38:04.810Z,-4.90
2018-02-09T01:39:05.479Z,-4.90
2018-02-09T01:40:05.586Z,-4.90
2018-02-09T01:41:05.122Z,-4.90
2018-02-09T01:42:04.801Z,-4.90
2018-02-09T01:43:04.777Z,-4.90
2018-02-09T01:44:05.581Z,-4.90
2018-02-09T01:45:04.733Z,-4.90
2018-02-09T01:46:05.134Z,-4.90
2018-02-09T01:47:05.214Z,-4.90
2018-02-09T01:48:05.482Z,-4.90
2018-02-09T01:49:04.827Z,-4.90
2018-02-09T01:50:05.674Z,-4.90
2018-02-09T01:51:04.755Z,-4.90
2018-02-09T01:52:05.016Z,-4.90
2018-02-09T01:53:05.432Z,-4.90
2018-02-09T01:54:04.780Z,-4.80
2018-02-09T01:55:05.002Z,-4.80
2018-02-09T01:56:04.923Z,-4.90
2018-02-09T01:57:05.495Z,-4.90
2018-02-09T01:58:05.092Z,-4.80
2018-02-09T01:59:05.407Z,-4.80
2018-02-09T02:00:05.557Z,-4.80
2018-02-09T02:01:05.063Z,-4.80
2018-02-09T02:02:05.086Z,-4.80
2018-02-09T02:03:04.755Z,-4.80
2018-02-09T02:04:05.101Z,-4.80
2018-02-09T02:05:04.705Z,-4.80
2018-02-09T02:06:05.347Z,-4.80
2018-02-09T02:07:05.472Z,-4.80
2018-02-09T02:08:04.911Z,-4.80
2018-02-09T02:09:04.833Z,-4.70
2018-02-09T02:10:05.363Z,-4.70
2018-02-09T02:11:05.172Z,-4.70
2018-02-09T02:12:05.327Z,-4.70
2018-02-09T02:13:05.577Z,-4.70
2018-02-09T02:14:05.638Z,-4.70
2018-02-09T02:15:05.266Z,-4.70
2018-02-09T02:16:05.042Z,-4.70
2018-02-09T02:17:04.682Z,-4.60
2018-02-09T02:18:05.050Z,-4.60
2018-02-09T02:19:05.308Z,-4.60
2018-02-09T02:20:10.212Z,-4.60
2018-02-09T02:21:05.077Z,-4.60
2018-02-09T02:22:04.809Z,-4.60
2018-02-09T02:23:04.798Z,-4.60
2018-02-09T02:24:05.129Z,-4.60
2018-02-09T02:25:04.866Z,-4.50
2018-02-09T02:26:05.668Z,-4.50
2018-02-09T02:27:05.669Z,-4.50
2018-02-09T02:28:04.809Z,-4.50
2018-02-09T02:29:05.532Z,-4.50
2018-02-09T02:30:04.837Z,-4.50
2018-02-09T02:31:05.502Z,-4.50
2018-02-09T02:32:05.283Z,-4.50
2018-02-09T02:33:04.693Z,-4.50
2018-02-09T02:34:05.352Z,-4.50
2018-02-09T02:35:05.631Z,-4.50
2018-02-09T02:36:05.069Z,-4.50
2018-02-09T02:37:04.894Z,-4.40
2018-02-09T02:38:05.344Z,-4.40
2018-02-09T02:39:05.017Z,-4.40
2018-02-09T02:40:05.060Z,-4.40
2018-02-09T02:41:05.698Z,-4.40
2018-02-09T02:42:05.420Z,-4.40
2018-02-09T02:43:05.164Z,-4.40
2018-02-09T02:44:05.474Z,-4.40
2018-02-09T02:45:04.682Z,-4.40
2018-02-09T02:46:04.942Z,-4.40
2018-02-09T02:47:05.338Z,-4.40
2018-02-09T02:48:04.732Z,-4.40
2018-02-09T02:49:04.975Z,-4.40
2018-02-09T02:50:04.641Z,-4.40
2018-02-09T02:51:05.339Z,-4.40
2018-02-09T02:52:04.969Z,-4.40
2018-02-09T02:53:04.871Z,-4.40
2018-02-09T02:54:05.178Z,-4.40
2018-02-09T02:55:04.801Z,-4.30
2018-02-09T02:56:05.147Z,-4.30
2018-02-09T02:57:05.009Z,-4.30
2018-02-09T02:58:05.594Z,-4.30
2018-02-09T02:59:05.016Z,-4.30
2018-02-09T03:00:05.628Z,-4.30
2018-02-09T03:01:05.397Z,-4.30
2018-02-09T03:02:05.352Z,-4.30
2018-02-09T03:03:04.860Z,-4.30
2018-02-09T03:04:04.926Z,-4.30
2018-02-09T03:05:04.706Z,-4.30
2018-02-09T03:06:04.986Z,-4.30
2018-02-09T03:07:05.643Z,-4.30
2018-02-09T03:08:04.773Z,-4.30
2018-02-09T03:09:05.361Z,-4.30
2018-02-09T03:10:05.627Z,-4.30
2018-02-09T03:11:05.260Z,-4.30
2018-02-09T03:12:04.798Z,-4.30
2018-02-09T03:13:05.564Z,-4.30
2018-02-09T03:14:05.524Z,-4.30
2018-02-09T03:15:05.024Z,-4.30
2018-02-09T03:16:05.536Z,-4.30
2018-02-09T03:17:05.672Z,-4.30
2018-02-09T03:18:05.202Z,-4.30
2018-02-09T03:19:05.570Z,-4.30
2018-02-09T03:20:05.708Z,-4.30
2018-02-09T03:21:05.108Z,-4.40
2018-02-09T03:22:05.439Z,-4.30
2018-02-09T03:23:05.241Z,-4.40
2018-02-09T03:24:04.945Z,-4.40
2018-02-09T03:25:05.079Z,-4.40
2018-02-09T03:26:05.593Z,-4.40
2018-02-09T03:27:05.344Z,-4.40
2018-02-09T03:28:04.632Z,-4.40
2018-02-09T03:29:05.135Z,-4.40
2018-02-09T03:30:04.856Z,-4.40
2018-02-09T03:31:05.037Z,-4.40
2018-02-09T03:32:05.082Z,-4.40
2018-02-09T03:33:06.502Z,-4.40
2018-02-09T03:34:04.881Z,-4.40
2018-02-09T03:35:05.443Z,-4.40
2018-02-09T03:36:05.468Z,-4.50
2018-02-09T03:37:04.962Z,-4.50
2018-02-09T03:38:05.063Z,-4.50
2018-02-09T03:39:04.698Z,-4.50
2018-02-09T03:40:04.609Z,-4.50
2018-02-09T03:41:05.526Z,-4.60
2018-02-09T03:42:04.896Z,-4.60
2018-02-09T03:43:05.303Z,-4.60
2018-02-09T03:44:04.746Z,-4.60
2018-02-09T03:45:05.439Z,-4.60
2018-02-09T03:46:05.387Z,-4.60
2018-02-09T03:47:05.741Z,-4.60
2018-02-09T03:48:05.448Z,-4.60
2018-02-09T03:49:05.375Z,-4.60
2018-02-09T03:50:04.946Z,-4.60
2018-02-09T03:51:05.440Z,-4.70
2018-02-09T03:52:04.592Z,-4.70
2018-02-09T03:53:05.293Z,-4.70
2018-02-09T03:54:05.522Z,-4.70
2018-02-09T03:55:04.847Z,-4.70
2018-02-09T03:56:04.784Z,-4.80
2018-02-09T03:57:05.618Z,-4.80
2018-02-09T03:58:05.538Z,-4.80
2018-02-09T03:59:05.245Z,-4.80
2018-02-09T04:00:05.633Z,-4.80
2018-02-09T04:01:05.311Z,-4.90
2018-02-09T04:02:04.796Z,-4.90
2018-02-09T04:03:05.324Z,-4.90
2018-02-09T04:04:04.992Z,-4.90
2018-02-09T04:05:05.617Z,-4.90
2018-02-09T04:06:05.132Z,-4.90
2018-02-09T04:07:05.009Z,-4.90
2018-02-09T04:08:04.777Z,-4.90
2018-02-09T04:09:05.083Z,-4.90
2018-02-09T04:10:05.250Z,-5.00
2018-02-09T04:11:04.759Z,-5.00
2018-02-09T04:12:04.952Z,-5.00
2018-02-09T04:13:04.638Z,-5.00
2018-02-09T04:14:09.690Z,-5.00
2018-02-09T04:15:05.688Z,-5.00
2018-02-09T04:16:04.819Z,-5.00
2018-02-09T04:17:05.640Z,-5.00
2018-02-09T04:18:04.714Z,-5.00
2018-02-09T04:19:05.305Z,-5.00
2018-02-09T04:20:04.878Z,-5.00
2018-02-09T04:21:04.869Z,-5.10
2018-02-09T04:22:05.605Z,-5.10
2018-02-09T04:23:05.257Z,-5.10
2018-02-09T04:24:05.193Z,-5.10
2018-02-09T04:25:05.340Z,-5.10
2018-02-09T04:26:04.700Z,-5.10
2018-02-09T04:27:05.558Z,-5.10
2018-02-09T04:28:04.718Z,-5.10
2018-02-09T04:29:05.584Z,-5.10
2018-02-09T04:30:05.537Z,-5.10
2018-02-09T04:31:05.378Z,-5.10
2018-02-09T04:32:05.249Z,-5.10
2018-02-09T04:33:05.212Z,-5.10
2018-02-09T04:34:05.671Z,-5.10
2018-02-09T04:35:04.728Z,-5.10
2018-02-09T04:36:10.756Z,-5.10
2018-02-09T04:37:05.065Z,-5.10
2018-02-09T04:38:05.316Z,-5.10
2018-02-09T04:39:04.768Z,-5.10
2018-02-09T04:40:05.210Z,-5.20
2018-02-09T04:41:05.121Z,-5.20
2018-02-09T04:42:04.742Z,-5.20
2018-02-09T04:43:04.953Z,-5.20
2018-02-09T04:44:05.295Z,-5.20
2018-02-09T04:45:04.882Z,-5.20
2018-02-09T04:46:05.507Z,-5.20
2018-02-09T04:47:05.146Z,-5.30
2018-02-09T04:48:04.768Z,-5.30
2018-02-09T04:49:05.221Z,-5.30
2018-02-09T04:50:05.306Z,-5.30
2018-02-09T04:51:04.897Z,-5.30
2018-02-09T04:52:05.594Z,-5.40
2018-02-09T04:53:06.265Z,-5.40
2018-02-09T04:54:04.786Z,-5.40
2018-02-09T04:55:05.393Z,-5.40
2018-02-09T04:56:05.004Z,-5.40
2018-02-09T04:57:04.763Z,-5.40
2018-02-09T04:58:05.407Z,-5.40
2018-02-09T04:59:05.179Z,-5.40
2018-02-09T05:00:05.632Z,-5.40
2018-02-09T05:01:05.420Z,-5.50
2018-02-09T05:02:05.132Z,-5.50
2018-02-09T05:03:05.091Z,-5.50
2018-02-09T05:04:04.658Z,-5.50
2018-02-09T05:05:04.808Z,-5.50
2018-02-09T05:06:04.902Z,-5.50
2018-02-09T05:07:05.297Z,-5.60
2018-02-09T05:08:05.444Z,-5.50
2018-02-09T05:09:05.391Z,-5.60
2018-02-09T05:10:05.440Z,-5.60
2018-02-09T05:11:05.135Z,-5.60
2018-02-09T05:12:05.109Z,-5.60
2018-02-09T05:13:04.799Z,-5.60
2018-02-09T05:14:05.127Z,-5.60
2018-02-09T05:15:05.515Z,-5.60
2018-02-09T05:16:05.303Z,-5.60
2018-02-09T05:17:04.867Z,-5.60
2018-02-09T05:18:04.958Z,-5.70
2018-02-09T05:19:05.590Z,-5.70
2018-02-09T05:20:04.819Z,-5.70
2018-02-09T05:21:05.570Z,-5.70
2018-02-09T05:22:04.978Z,-5.70
2018-02-09T05:23:04.782Z,-5.70
2018-02-09T05:24:04.789Z,-5.70
2018-02-09T05:25:05.013Z,-5.80
2018-02-09T05:26:05.286Z,-5.80
2018-02-09T05:27:04.911Z,-5.80
2018-02-09T05:28:05.653Z,-5.80
2018-02-09T05:29:05.014Z,-5.80
2018-02-09T05:30:04.860Z,-5.80
2018-02-09T05:31:05.639Z,-5.80
2018-02-09T05:32:05.214Z,-5.80
2018-02-09T05:33:04.840Z,-5.90
2018-02-09T05:34:05.246Z,-5.90
2018-02-09T05:35:05.160Z,-5.90
2018-02-09T05:36:05.224Z,-5.90
2018-02-09T05:37:04.878Z,-5.90
2018-02-09T05:38:05.043Z,-5.90
2018-02-09T05:39:05.248Z,-5.90
2018-02-09T05:40:04.736Z,-5.90
2018-02-09T05:41:05.544Z,-6.00
2018-02-09T05:42:05.165Z,-6.00
2018-02-09T05:43:05.377Z,-6.00
2018-02-09T05:44:04.714Z,-6.00
2018-02-09T05:45:05.650Z,-6.00
2018-02-09T05:46:04.746Z,-6.00
2018-02-09T05:47:05.122Z,-6.10
2018-02-09T05:48:05.535Z,-6.10
2018-02-09T05:49:05.467Z,-6.10
2018-02-09T05:50:04.796Z,-6.10
2018-02-09T05:51:05.339Z,-6.10
2018-02-09T05:52:05.486Z,-6.20
2018-02-09T05:53:04.703Z,-6.20
2018-02-09T05:54:08.418Z,-6.20
2018-02-09T05:55:05.379Z,-6.20
2018-02-09T05:56:05.545Z,-6.20
2018-02-09T05:57:04.686Z,-6.20
2018-02-09T05:58:04.782Z,-6.20
2018-02-09T05:59:05.444Z,-6.20
2018-02-09T06:00:05.397Z,-6.20
2018-02-09T06:01:10.125Z,-6.30
2018-02-09T06:02:05.132Z,-6.30
2018-02-09T06:03:04.953Z,-6.30
2018-02-09T06:04:05.285Z,-6.30
2018-02-09T06:05:05.639Z,-6.30
2018-02-09T06:06:05.292Z,-6.30
2018-02-09T06:07:05.043Z,-6.30
2018-02-09T06:08:04.797Z,-6.30
2018-02-09T06:09:05.564Z,-6.40
2018-02-09T06:10:04.984Z,-6.40
2018-02-09T06:11:04.890Z,-6.40
2018-02-09T06:12:05.265Z,-6.40
2018-02-09T06:13:05.210Z,-6.40
2018-02-09T06:14:05.069Z,-6.40
2018-02-09T06:15:04.849Z,-6.40
2018-02-09T06:16:05.564Z,-6.40
2018-02-09T06:17:05.293Z,-6.50
2018-02-09T06:18:05.617Z,-6.50
2018-02-09T06:19:05.173Z,-6.50
2018-02-09T06:20:05.243Z,-6.50
2018-02-09T06:21:04.993Z,-6.50
2018-02-09T06:22:04.828Z,-6.50
2018-02-09T06:23:05.133Z,-6.50
2018-02-09T06:24:05.329Z,-6.50
2018-02-09T06:25:05.204Z,-6.50
2018-02-09T06:26:10.004Z,-6.60
2018-02-09T06:27:05.203Z,-6.60
2018-02-09T06:28:05.447Z,-6.60
2018-02-09T06:29:04.688Z,-6.60
2018-02-09T06:30:05.613Z,-6.60
2018-02-09T06:31:05.138Z,-6.60
2018-02-09T06:32:05.548Z,-6.60
2018-02-09T06:33:05.139Z,-6.60
2018-02-09T06:34:04.898Z,-6.70
2018-02-09T06:35:05.616Z,-6.70
2018-02-09T06:36:05.717Z,-6.70
2018-02-09T06:37:05.052Z,-6.70
2018-02-09T06:38:05.518Z,-6.70
2018-02-09T06:39:05.041Z,-6.70
2018-02-09T06:40:05.152Z,-6.70
2018-02-09T06:41:05.225Z,-6.70
2018-02-09T06:42:04.839Z,-6.80
2018-02-09T06:43:04.783Z,-6.80
2018-02-09T06:44:04.945Z,-6.80
2018-02-09T06:45:05.438Z,-6.80
2018-02-09T06:46:05.272Z,-6.90
2018-02-09T06:47:04.887Z,-6.90
2018-02-09T06:48:05.130Z,-6.90
2018-02-09T06:49:05.264Z,-6.90
2018-02-09T06:50:05.208Z,-7.00
2018-02-09T06:51:05.306Z,-7.00
2018-02-09T06:52:04.946Z,-7.00
2018-02-09T06:53:10.066Z,-7.00
2018-02-09T06:54:04.924Z,-7.00
2018-02-09T06:55:04.724Z,-7.10
2018-02-09T06:56:05.468Z,-7.10
2018-02-09T06:57:05.266Z,-7.10
2018-02-09T06:58:04.951Z,-7.10
2018-02-09T06:59:05.205Z,-7.20
2018-02-09T07:00:05.289Z,-7.20
2018-02-09T07:01:05.103Z,-7.20
2018-02-09T07:02:04.808Z,-7.20
2018-02-09T07:03:05.537Z,-7.20
2018-02-09T07:04:05.080Z,-7.30
2018-02-09T07:05:04.952Z,-7.30
2018-02-09T07:06:04.989Z,-7.30
2018-02-09T07:07:05.709Z,-7.40
2018-02-09T07:08:05.606Z,-7.40
2018-02-09T07:09:05.199Z,-7.40
2018-02-09T07:10:05.530Z,-7.40
2018-02-09T07:11:05.225Z,-7.40
2018-02-09T07:12:04.916Z,-7.40
2018-02-09T07:13:05.494Z,-7.50
2018-02-09T07:14:04.886Z,-7.50
2018-02-09T07:15:05.709Z,-7.50
2018-02-09T07:16:05.133Z,-7.50
2018-02-09T07:17:04.888Z,-7.50
2018-02-09T07:18:05.598Z,-7.50
2018-02-09T07:19:04.955Z,-7.50
2018-02-09T07:20:04.718Z,-7.50
2018-02-09T07:21:04.770Z,-7.50
2018-02-09T07:22:05.622Z,-7.50
2018-02-09T07:23:05.323Z,-7.50
2018-02-09T07:24:05.111Z,-7.50
2018-02-09T07:25:05.299Z,-7.50
2018-02-09T07:26:04.912Z,-7.50
2018-02-09T07:27:04.878Z,-7.50
2018-02-09T07:28:04.909Z,-7.50
2018-02-09T07:29:05.081Z,-7.40
2018-02-09T07:30:04.884Z,-7.40
2018-02-09T07:31:04.647Z,-7.40
2018-02-09T07:32:05.359Z,-7.30
2018-02-09T07:33:04.780Z,-7.30
2018-02-09T07:34:05.232Z,-7.30
2018-02-09T07:35:05.565Z,-7.30
2018-02-09T07:36:05.562Z,-7.20
2018-02-09T07:37:04.915Z,-7.20
2018-02-09T07:38:05.603Z,-7.10
2018-02-09T07:39:05.264Z,-7.10
2018-02-09T07:40:04.781Z,-7.10
2018-02-09T07:41:05.562Z,-7.00
2018-02-09T07:42:05.101Z,-7.00
2018-02-09T07:43:04.778Z,-7.00
2018-02-09T07:44:05.033Z,-7.00
2018-02-09T07:45:05.334Z,-6.90
2018-02-09T07:46:04.956Z,-6.90
2018-02-09T07:47:05.421Z,-6.80
2018-02-09T07:48:05.185Z,-6.80
2018-02-09T07:49:04.785Z,-6.80
2018-02-09T07:50:06.278Z,-6.70
2018-02-09T07:51:05.604Z,-6.70
2018-02-09T07:52:06.577Z,-6.70
2018-02-09T07:53:05.085Z,-6.60
2018-02-09T07:54:05.500Z,-6.60
2018-02-09T07:55:05.295Z,-6.50
2018-02-09T07:56:04.801Z,-6.50
2018-02-09T07:57:05.696Z,-6.40
2018-02-09T07:58:05.496Z,-6.40
2018-02-09T07:59:04.997Z,-6.30
2018-02-09T08:00:05.064Z,-6.30
2018-02-09T08:01:05.705Z,-6.20
2018-02-09T08:02:04.690Z,-6.20
2018-02-09T08:03:05.232Z,-6.10
2018-02-09T08:04:05.561Z,-6.10
2018-02-09T08:05:04.916Z,-6.00
2018-02-09T08:06:05.341Z,-5.90
2018-02-09T08:07:05.750Z,-5.90
2018-02-09T08:08:05.363Z,-5.80
2018-02-09T08:09:05.563Z,-5.70
2018-02-09T08:10:04.704Z,-5.70
2018-02-09T08:11:04.791Z,-5.60
2018-02-09T08:12:04.924Z,-5.60
2018-02-09T08:13:05.217Z,-5.50
2018-02-09T08:14:05.307Z,-5.40
2018-02-09T08:15:05.540Z,-5.40
2018-02-09T08:16:05.618Z,-5.30
2018-02-09T08:17:05.395Z,-5.30
2018-02-09T08:18:05.233Z,-5.20
2018-02-09T08:19:04.695Z,-5.20
2018-02-09T08:20:05.630Z,-5.10
2018-02-09T08:21:06.186Z,-5.10
2018-02-09T08:22:05.300Z,-5.00
2018-02-09T08:23:05.048Z,-4.90
2018-02-09T08:24:05.226Z,-4.90
2018-02-09T08:25:04.872Z,-4.80
2018-02-09T08:26:05.386Z,-4.70
2018-02-09T08:27:05.181Z,-4.70
2018-02-09T08:28:05.015Z,-4.60
2018-02-09T08:29:05.282Z,-4.60
2018-02-09T08:30:05.235Z,-4.50
2018-02-09T08:31:04.825Z,-4.40
2018-02-09T08:32:05.465Z,-4.40
2018-02-09T08:33:04.952Z,-4.40
2018-02-09T08:34:04.688Z,-4.30
2018-02-09T08:35:04.946Z,-4.30
2018-02-09T08:36:05.421Z,-4.20
2018-02-09T08:37:05.711Z,-4.20
2018-02-09T08:38:04.815Z,-4.10
2018-02-09T08:39:05.048Z,-4.10
2018-02-09T08:40:04.750Z,-4.00
2018-02-09T08:41:04.766Z,-4.00
2018-02-09T08:42:04.934Z,-3.90
2018-02-09T08:43:05.208Z,-3.90
2018-02-09T08:44:05.134Z,-3.80
2018-02-09T08:45:05.372Z,-3.70
2018-02-09T08:46:04.898Z,-3.70
2018-02-09T08:47:04.888Z,-3.60
2018-02-09T08:48:04.836Z,-3.60
2018-02-09T08:49:05.460Z,-3.50
2018-02-09T08:50:05.106Z,-3.50
2018-02-09T08:51:04.917Z,-3.40
2018-02-09T08:52:05.616Z,-3.30
2018-02-09T08:53:05.232Z,-3.30
2018-02-09T08:54:05.616Z,-3.20
2018-02-09T08:55:04.776Z,-3.20
2018-02-09T08:56:05.280Z,-3.10
2018-02-09T08:57:05.035Z,-3.10
2018-02-09T08:58:04.818Z,-3.10
2018-02-09T08:59:05.375Z,-3.00
2018-02-09T09:00:05.051Z,-3.00
2018-02-09T09:01:05.019Z,-2.90
2018-02-09T09:02:05.562Z,-2.90
2018-02-09T09:03:05.225Z,-2.80
2018-02-09T09:04:04.677Z,-2.80
2018-02-09T09:05:04.806Z,-2.80
2018-02-09T09:06:05.577Z,-2.70
2018-02-09T09:07:05.495Z,-2.70
2018-02-09T09:08:05.857Z,-2.60
2018-02-09T09:09:04.884Z,-2.60
2018-02-09T09:10:05.536Z,-2.50
2018-02-09T09:11:05.273Z,-2.50
2018-02-09T09:12:05.168Z,-2.40
2018-02-09T09:13:05.527Z,-2.40
2018-02-09T09:14:05.388Z,-2.30
2018-02-09T09:15:05.402Z,-2.20
2018-02-09T09:16:05.506Z,-2.20
2018-02-09T09:17:05.051Z,-2.10
2018-02-09T09:18:04.879Z,-2.10
2018-02-09T09:19:05.294Z,-2.00
2018-02-09T09:20:05.549Z,-2.00
2018-02-09T09:21:06.218Z,-1.90
2018-02-09T09:22:04.747Z,-1.80
2018-02-09T09:23:04.864Z,-1.80
2018-02-09T09:24:04.628Z,-1.70
2018-02-09T09:25:05.453Z,-1.70
2018-02-09T09:26:05.472Z,-1.60
2018-02-09T09:27:04.767Z,-1.60
2018-02-09T09:28:05.161Z,-1.50
2018-02-09T09:29:04.867Z,-1.50
2018-02-09T09:30:04.754Z,-1.40
2018-02-09T09:31:06.172Z,-1.40
2018-02-09T09:32:05.307Z,-1.30
2018-02-09T09:33:05.591Z,-1.30
2018-02-09T09:34:05.752Z,-1.20
2018-02-09T09:35:04.775Z,-1.20
2018-02-09T09:36:04.777Z,-1.10
2018-02-09T09:37:05.213Z,-1.10
2018-02-09T09:38:04.746Z,-1.00
2018-02-09T09:39:05.402Z,-1.00
2018-02-09T09:40:05.586Z,-0.90
2018-02-09T09:41:04.923Z,-0.90
2018-02-09T09:42:05.157Z,-0.80
2018-02-09T09:43:05.030Z,-0.80
2018-02-09T09:44:04.796Z,-0.70
2018-02-09T09:45:04.921Z,-0.70
2018-02-09T09:46:04.917Z,-0.60
2018-02-09T09:47:05.320Z,-0.60
2018-02-09T09:48:05.066Z,-0.60
2018-02-09T09:49:10.349Z,-0.50
2018-02-09T09:50:04.905Z,-0.50
2018-02-09T09:51:05.532Z,-0.50
2018-02-09T09:52:05.347Z,-0.40
2018-02-09T09:53:05.026Z,-0.40
2018-02-09T09:54:05.035Z,-0.30
2018-02-09T09:55:05.834Z,-0.30
2018-02-09T09:56:05.101Z,-0.30
2018-02-09T09:57:06.032Z,-0.20
2018-02-09T09:58:04.813Z,-0.20
2018-02-09T09:59:05.016Z,-0.10
2018-02-09T10:00:04.753Z,-0.10
2018-02-09T10:01:04.919Z,0.00
2018-02-09T10:02:04.659Z,0.00
2018-02-09T10:03:04.917Z,0.10
2018-02-09T10:04:05.142Z,0.10
2018-02-09T10:05:04.699Z,0.20
2018-02-09T10:06:04.840Z,0.20
2018-02-09T10:07:05.628Z,0.30
2018-02-09T10:08:05.467Z,0.30
2018-02-09T10:09:05.044Z,0.40
2018-02-09T10:10:05.153Z,0.40
2018-02-09T10:11:04.756Z,0.40
2018-02-09T10:12:04.831Z,0.40
2018-02-09T10:13:05.442Z,0.40
2018-02-09T10:14:05.298Z,0.50
2018-02-09T10:15:05.034Z,0.50
2018-02-09T10:16:04.741Z,0.50
2018-02-09T10:17:05.257Z,0.50
2018-02-09T10:18:04.798Z,0.50
2018-02-09T10:19:05.228Z,0.50
2018-02-09T10:20:04.741Z,0.50
2018-02-09T10:21:04.843Z,0.50
2018-02-09T10:22:05.027Z,0.50
2018-02-09T10:23:05.197Z,0.50
2018-02-09T10:24:05.400Z,0.50
2018-02-09T10:25:05.534Z,0.50
2018-02-09T10:26:05.417Z,0.50
2018-02-09T10:27:05.317Z,0.50
2018-02-09T10:28:05.509Z,0.50
2018-02-09T10:29:05.653Z,0.50
2018-02-09T10:30:04.834Z,0.50
2018-02-09T10:31:05.459Z,0.50
2018-02-09T10:32:05.118Z,0.50
2018-02-09T10:33:04.724Z,0.50
2018-02-09T10:34:05.304Z,0.50
2018-02-09T10:35:04.937Z,0.50
2018-02-09T10:36:04.807Z,0.50
2018-02-09T10:37:05.119Z,0.50
2018-02-09T10:38:04.934Z,0.50
2018-02-09T10:39:05.404Z,0.50
2018-02-09T10:40:05.234Z,0.60
2018-02-09T10:41:04.989Z,0.60
2018-02-09T10:42:04.996Z,0.60
2018-02-09T10:43:05.532Z,0.60
2018-02-09T10:44:05.532Z,0.60
2018-02-09T10:45:05.015Z,0.60
2018-02-09T10:46:05.534Z,0.60
2018-02-09T10:47:05.456Z,0.60
2018-02-09T10:48:05.030Z,0.60
2018-02-09T10:49:05.604Z,0.60
2018-02-09T10:50:04.929Z,0.60
2018-02-09T10:51:04.921Z,0.70
2018-02-09T10:52:05.535Z,0.70
2018-02-09T10:53:04.607Z,0.70
2018-02-09T10:54:05.606Z,0.70
2018-02-09T10:55:05.613Z,0.70
2018-02-09T10:56:05.667Z,0.70
2018-02-09T10:57:05.142Z,0.70
2018-02-09T10:58:05.073Z,0.70
2018-02-09T10:59:05.597Z,0.70
2018-02-09T11:00:05.515Z,0.70
2018-02-09T11:01:05.717Z,0.70
2018-02-09T11:02:05.531Z,0.70
2018-02-09T11:03:05.081Z,0.70
2018-02-09T11:04:05.197Z,0.80
2018-02-09T11:05:04.723Z,0.80
2018-02-09T11:06:04.695Z,0.80
2018-02-09T11:07:04.809Z,0.80
2018-02-09T11:08:04.769Z,0.80
2018-02-09T11:09:05.311Z,0.80
2018-02-09T11:10:05.123Z,0.80
2018-02-09T11:11:04.725Z,0.80
2018-02-09T11:12:05.584Z,0.80
2018-02-09T11:13:04.926Z,0.90
2018-02-09T11:14:05.322Z,0.90
2018-02-09T11:15:04.955Z,0.90
2018-02-09T11:16:04.619Z,0.90
2018-02-09T11:17:05.350Z,0.90
2018-02-09T11:18:05.186Z,0.90
2018-02-09T11:19:05.363Z,0.90
2018-02-09T11:20:05.170Z,0.90
2018-02-09T11:21:05.221Z,0.90
2018-02-09T11:22:05.581Z,0.90
2018-02-09T11:23:05.604Z,1.00
2018-02-09T11:24:05.609Z,1.00
2018-02-09T11:25:05.310Z,1.00
2018-02-09T11:26:04.854Z,1.00
2018-02-09T11:27:05.352Z,1.00
2018-02-09T11:28:05.445Z,1.00
2018-02-09T11:29:04.993Z,1.10
2018-02-09T11:30:05.502Z,1.10
2018-02-09T11:31:05.430Z,1.10
2018-02-09T11:32:05.456Z,1.10
2018-02-09T11:33:05.407Z,1.10
2018-02-09T11:34:04.821Z,1.10
2018-02-09T11:35:04.877Z,1.10
2018-02-09T11:36:05.053Z,1.10
2018-02-09T11:37:06.670Z,1.10
2018-02-09T11:38:05.282Z,1.10
2018-02-09T11:39:05.161Z,1.10
2018-02-09T11:40:05.712Z,1.10
2018-02-09T11:41:04.809Z,1.10
2018-02-09T11:42:05.418Z,1.10
2018-02-09T11:43:04.766Z,1.10
2018-02-09T11:44:05.543Z,1.10
2018-02-09T11:45:04.889Z,1.10
2018-02-09T11:46:04.943Z,1.10
2018-02-09T11:47:04.894Z,1.10
2018-02-09T11:48:04.973Z,1.10
2018-02-09T11:49:04.842Z,1.00
2018-02-09T11:50:05.786Z,1.00
2018-02-09T11:51:10.703Z,1.00
2018-02-09T11:52:05.514Z,1.00
2018-02-09T11:53:04.903Z,1.00
2018-02-09T11:54:04.925Z,1.00
2018-02-09T11:55:05.459Z,1.00
2018-02-09T11:56:05.508Z,1.00
2018-02-09T11:57:05.472Z,1.00
2018-02-09T11:58:05.221Z,1.00
2018-02-09T11:59:04.841Z,1.00
2018-02-09T12:00:05.311Z,0.90
2018-02-09T12:01:05.224Z,1.00
2018-02-09T12:02:05.332Z,0.90
2018-02-09T12:03:05.109Z,0.90
2018-02-09T12:04:05.064Z,0.90
2018-02-09T12:05:05.082Z,0.90
2018-02-09T12:06:05.293Z,0.90
2018-02-09T12:07:05.070Z,0.90
2018-02-09T12:08:05.069Z,0.90
2018-02-09T12:09:05.683Z,0.90
2018-02-09T12:10:05.528Z,0.90
2018-02-09T12:11:04.977Z,0.90
2018-02-09T12:12:04.726Z,0.90
2018-02-09T12:13:04.816Z,0.90
2018-02-09T12:14:05.084Z,0.80
2018-02-09T12:15:04.837Z,0.80
2018-02-09T12:16:04.872Z,0.90
2018-02-09T12:17:05.364Z,0.80
2018-02-09T12:18:05.594Z,0.90
2018-02-09T12:19:05.649Z,0.80
2018-02-09T12:20:05.567Z,0.80
2018-02-09T12:21:05.238Z,0.80
2018-02-09T12:22:05.105Z,0.80
2018-02-09T12:23:05.602Z,0.90
2018-02-09T12:24:05.165Z,0.90
2018-02-09T12:25:05.258Z,0.90
2018-02-09T12:26:05.277Z,0.80
2018-02-09T12:27:05.072Z,0.90
2018-02-09T12:28:04.788Z,0.90
2018-02-09T12:29:04.941Z,0.90
2018-02-09T12:30:04.654Z,0.90
2018-02-09T12:31:04.757Z,0.90
2018-02-09T12:32:05.093Z,0.90
2018-02-09T12:33:04.691Z,0.90
2018-02-09T12:34:05.177Z,0.90
2018-02-09T12:35:05.235Z,0.90
2018-02-09T12:36:05.055Z,0.90
2018-02-09T12:37:04.806Z,1.00
2018-02-09T12:38:05.357Z,1.00
2018-02-09T12:39:05.092Z,1.00
2018-02-09T12:40:05.526Z,1.00
2018-02-09T12:41:05.166Z,1.00
2018-02-09T12:42:05.169Z,1.00
2018-02-09T12:43:04.705Z,1.00
2018-02-09T12:44:05.314Z,1.00
2018-02-09T12:45:04.838Z,1.00
2018-02-09T12:46:04.994Z,1.00
2018-02-09T12:47:05.694Z,1.00
2018-02-09T12:48:05.072Z,1.00
2018-02-09T12:49:04.790Z,1.00
2018-02-09T12:50:05.603Z,1.10
2018-02-09T12:51:05.190Z,1.10
2018-02-09T12:52:04.798Z,1.00
2018-02-09T12:53:05.439Z,1.10
2018-02-09T12:54:05.164Z,1.10
2018-02-09T12:55:05.293Z,1.10
2018-02-09T12:56:05.325Z,1.10
2018-02-09T12:57:05.081Z,1.00
2018-02-09T12:58:05.623Z,1.10